createdAt,value
2022-10-05T00:00:02.060Z,235
2022-10-05T00:00:34.201Z,235
2022-10-05T00:01:04.836Z,230
2022-10-05T00:01:35.824Z,220
2022-10-05T00:02:09.065Z,226
2022-10-05T00:02:34.528Z,226
2022-10-05T00:02:56.910Z,226
2022-10-05T00:03:28.785Z,227
2022-10-05T00:04:02.140Z,232
2022-10-05T00:04:33.001Z,227
2022-10-05T00:05:05.773Z,230
2022-10-05T00:05:34.444Z,226
2022-10-05T00:05:52.888Z,227
2022-10-05T00:06:25.745Z,223
2022-10-05T00:06:42.178Z,235
2022-10-05T00:07:12.989Z,226
2022-10-05T00:07:34.793Z,226
2022-10-05T00:08:01.571Z,233
2022-10-05T00:08:33.339Z,231
2022-10-05T00:09:06.010Z,223
2022-10-05T00:09:34.550Z,228
2022-10-05T00:09:52.879Z,231
2022-10-05T00:10:26.056Z,228
2022-10-05T00:10:42.391Z,227
2022-10-05T00:11:12.776Z,226
2022-10-05T00:11:34.549Z,231
2022-10-05T00:12:00.810Z,232
2022-10-05T00:12:33.927Z,232
2022-10-05T00:13:05.021Z,228
2022-10-05T00:13:34.403Z,228
2022-10-05T00:13:53.733Z,225
2022-10-05T00:14:24.759Z,219
2022-10-05T00:14:42.083Z,234
2022-10-05T00:15:13.131Z,244
2022-10-05T00:15:34.619Z,236
2022-10-05T00:16:01.845Z,229
2022-10-05T00:16:32.897Z,244
2022-10-05T00:17:05.001Z,232
2022-10-05T00:17:34.417Z,211
2022-10-05T00:17:52.972Z,232
2022-10-05T00:18:25.519Z,227
2022-10-05T00:18:57.763Z,250
2022-10-05T00:19:29.993Z,240
2022-10-05T00:20:01.354Z,238
2022-10-05T00:20:33.731Z,242
2022-10-05T00:21:04.882Z,242
2022-10-05T00:21:35.545Z,242
2022-10-05T00:21:53.315Z,226
2022-10-05T00:22:24.924Z,249
2022-10-05T00:22:42.694Z,242
2022-10-05T00:23:12.774Z,224
2022-10-05T00:23:34.410Z,218
2022-10-05T00:24:00.993Z,261
2022-10-05T00:24:32.923Z,272
2022-10-05T00:25:05.756Z,276
2022-10-05T00:25:34.470Z,251
2022-10-05T00:25:53.229Z,236
2022-10-05T00:26:24.801Z,232
2022-10-05T00:26:42.038Z,245
2022-10-05T00:27:13.536Z,259
2022-10-05T00:27:34.551Z,272
2022-10-05T00:28:00.960Z,288
2022-10-05T00:28:32.811Z,248
2022-10-05T00:29:05.068Z,243
2022-10-05T00:29:35.069Z,290
2022-10-05T00:29:53.125Z,261
2022-10-05T00:30:25.771Z,290
2022-10-05T00:30:42.439Z,244
2022-10-05T00:31:12.935Z,249
2022-10-05T00:31:34.483Z,251
2022-10-05T00:32:01.025Z,257
2022-10-05T00:32:33.913Z,257
2022-10-05T00:33:04.845Z,257
2022-10-05T00:33:34.578Z,257
2022-10-05T00:33:53.943Z,254
2022-10-05T00:34:24.937Z,259
2022-10-05T00:34:42.075Z,260
2022-10-05T00:35:12.895Z,257
2022-10-05T00:35:34.433Z,257
2022-10-05T00:36:01.874Z,267
2022-10-05T00:36:32.976Z,276
2022-10-05T00:37:05.548Z,202
2022-10-05T00:37:34.668Z,203
2022-10-05T00:37:53.319Z,203
2022-10-05T00:38:24.781Z,229
2022-10-05T00:38:42.070Z,274
2022-10-05T00:39:13.723Z,258
2022-10-05T00:39:34.519Z,217
2022-10-05T00:40:00.954Z,174
2022-10-05T00:40:32.774Z,188
2022-10-05T00:41:04.968Z,188
2022-10-05T00:41:34.549Z,216
2022-10-05T00:41:53.036Z,230
2022-10-05T00:42:25.681Z,277
2022-10-05T00:42:42.364Z,210
2022-10-05T00:43:12.753Z,238
2022-10-05T00:43:34.402Z,237
2022-10-05T00:44:01.576Z,211
2022-10-05T00:44:33.512Z,204
2022-10-05T00:45:05.028Z,203
2022-10-05T00:45:35.724Z,239
2022-10-05T00:45:53.641Z,268
2022-10-05T00:46:24.867Z,280
2022-10-05T00:46:41.953Z,207
2022-10-05T00:47:12.883Z,209
2022-10-05T00:47:34.990Z,208
2022-10-05T00:48:01.942Z,214
2022-10-05T00:48:32.993Z,268
2022-10-05T00:49:05.155Z,269
2022-10-05T00:49:34.439Z,283
2022-10-05T00:49:52.802Z,278
2022-10-05T00:50:25.862Z,262
2022-10-05T00:50:57.916Z,235
2022-10-05T00:51:29.827Z,192
2022-10-05T00:52:01.188Z,207
2022-10-05T00:52:32.855Z,186
2022-10-05T00:53:04.987Z,241
2022-10-05T00:53:34.378Z,243
2022-10-05T00:53:53.653Z,262
2022-10-05T00:54:24.743Z,267
2022-10-05T00:54:41.941Z,267
2022-10-05T00:55:13.194Z,266
2022-10-05T00:55:34.518Z,269
2022-10-05T00:56:01.693Z,233
2022-10-05T00:56:33.409Z,212
2022-10-05T00:57:05.692Z,275
2022-10-05T00:57:34.557Z,275
2022-10-05T00:57:53.130Z,288
2022-10-05T00:58:24.776Z,284
2022-10-05T00:58:41.867Z,279
2022-10-05T00:59:13.743Z,280
2022-10-05T00:59:34.988Z,280
2022-10-05T01:00:01.878Z,306
2022-10-05T01:00:32.938Z,253
2022-10-05T01:01:04.922Z,282
2022-10-05T01:01:34.738Z,272
2022-10-05T01:01:53.965Z,243
2022-10-05T01:02:25.945Z,233
2022-10-05T01:02:42.615Z,195
2022-10-05T01:03:12.883Z,233
2022-10-05T01:03:34.474Z,233
2022-10-05T01:04:00.792Z,233
2022-10-05T01:04:34.030Z,269
2022-10-05T01:05:05.166Z,303
2022-10-05T01:05:34.417Z,293
2022-10-05T01:05:53.869Z,294
2022-10-05T01:06:24.774Z,294
2022-10-05T01:06:42.115Z,294
2022-10-05T01:07:13.549Z,245
2022-10-05T01:07:34.583Z,152
2022-10-05T01:08:00.828Z,135
2022-10-05T01:08:33.621Z,136
2022-10-05T01:09:05.021Z,280
2022-10-05T01:09:35.547Z,264
2022-10-05T01:09:52.748Z,287
2022-10-05T01:10:24.931Z,243
2022-10-05T01:10:41.935Z,222
2022-10-05T01:11:13.703Z,234
2022-10-05T01:11:34.443Z,266
2022-10-05T01:12:00.981Z,203
2022-10-05T01:12:33.619Z,273
2022-10-05T01:13:04.779Z,280
2022-10-05T01:13:35.996Z,280
2022-10-05T01:14:08.254Z,306
2022-10-05T01:14:24.690Z,286
2022-10-05T01:14:42.780Z,288
2022-10-05T01:15:12.912Z,290
2022-10-05T01:15:34.377Z,234
2022-10-05T01:16:00.943Z,233
2022-10-05T01:16:33.040Z,277
2022-10-05T01:17:05.598Z,277
2022-10-05T01:17:34.405Z,277
2022-10-05T01:17:52.760Z,275
2022-10-05T01:18:26.195Z,284
2022-10-05T01:18:42.239Z,288
2022-10-05T01:19:13.017Z,250
2022-10-05T01:19:34.566Z,289
2022-10-05T01:20:00.925Z,257
2022-10-05T01:20:33.683Z,200
2022-10-05T01:21:04.990Z,200
2022-10-05T01:21:35.337Z,200
2022-10-05T01:21:52.882Z,203
2022-10-05T01:22:24.781Z,211
2022-10-05T01:22:41.950Z,204
2022-10-05T01:23:13.728Z,265
2022-10-05T01:23:34.392Z,265
2022-10-05T01:24:00.987Z,264
2022-10-05T01:24:33.780Z,257
2022-10-05T01:25:04.969Z,256
2022-10-05T01:25:34.564Z,275
2022-10-05T01:25:53.944Z,223
2022-10-05T01:26:24.903Z,211
2022-10-05T01:26:42.025Z,257
2022-10-05T01:27:13.303Z,264
2022-10-05T01:27:35.110Z,243
2022-10-05T01:28:02.025Z,240
2022-10-05T01:28:33.368Z,266
2022-10-05T01:29:05.707Z,342
2022-10-05T01:29:34.780Z,263
2022-10-05T01:29:52.839Z,286
2022-10-05T01:30:25.020Z,263
2022-10-05T01:30:42.070Z,257
2022-10-05T01:31:13.879Z,243
2022-10-05T01:31:34.692Z,226
2022-10-05T01:32:00.829Z,169
2022-10-05T01:32:32.802Z,225
2022-10-05T01:33:05.071Z,259
2022-10-05T01:33:34.377Z,275
2022-10-05T01:33:52.785Z,260
2022-10-05T01:34:35.315Z,334
2022-10-05T01:34:56.876Z,207
2022-10-05T01:35:29.041Z,225
2022-10-05T01:36:00.877Z,208
2022-10-05T01:36:33.641Z,284
2022-10-05T01:37:05.215Z,269
2022-10-05T01:37:34.811Z,294
2022-10-05T01:37:53.923Z,292
2022-10-05T01:38:25.169Z,245
2022-10-05T01:38:57.716Z,241
2022-10-05T01:39:28.859Z,255
2022-10-05T01:40:01.762Z,273
2022-10-05T01:40:32.962Z,282
2022-10-05T01:41:05.741Z,266
2022-10-05T01:41:34.507Z,259
2022-10-05T01:41:53.048Z,236
2022-10-05T01:42:34.590Z,271
2022-10-05T01:42:56.889Z,205
2022-10-05T01:43:28.739Z,261
2022-10-05T01:44:01.213Z,240
2022-10-05T01:44:32.955Z,254
2022-10-05T01:45:05.194Z,249
2022-10-05T01:45:34.500Z,251
2022-10-05T01:45:52.948Z,263
2022-10-05T01:46:25.688Z,167
2022-10-05T01:46:42.517Z,292
2022-10-05T01:47:12.878Z,311
2022-10-05T01:47:35.373Z,315
2022-10-05T01:48:01.815Z,249
2022-10-05T01:48:32.768Z,189
2022-10-05T01:49:05.754Z,188
2022-10-05T01:49:34.386Z,232
2022-10-05T01:49:52.749Z,253
2022-10-05T01:50:24.834Z,214
2022-10-05T01:50:41.926Z,249
2022-10-05T01:51:13.786Z,205
2022-10-05T01:51:34.467Z,259
2022-10-05T01:52:01.004Z,188
2022-10-05T01:52:32.753Z,179
2022-10-05T01:53:05.275Z,206
2022-10-05T01:53:34.507Z,182
2022-10-05T01:53:52.886Z,245
2022-10-05T01:54:25.677Z,205
2022-10-05T01:54:42.366Z,205
2022-10-05T01:55:12.843Z,198
2022-10-05T01:55:34.383Z,260
2022-10-05T01:56:01.705Z,263
2022-10-05T01:56:32.900Z,280
2022-10-05T01:57:04.819Z,225
2022-10-05T01:57:34.455Z,226
2022-10-05T01:57:52.848Z,256
2022-10-05T01:58:25.853Z,225
2022-10-05T01:58:58.039Z,239
2022-10-05T01:59:29.561Z,224
2022-10-05T02:00:01.187Z,224
2022-10-05T02:00:32.958Z,244
2022-10-05T02:01:05.048Z,221
2022-10-05T02:01:34.445Z,221
2022-10-05T02:01:53.756Z,247
2022-10-05T02:02:24.912Z,276
2022-10-05T02:02:41.972Z,275
2022-10-05T02:03:12.925Z,214
2022-10-05T02:03:34.513Z,214
2022-10-05T02:04:01.680Z,214
2022-10-05T02:05:00.347Z,214
2022-10-05T02:05:21.853Z,215
2022-10-05T02:05:52.949Z,221
2022-10-05T02:06:25.788Z,214
2022-10-05T02:06:42.480Z,222
2022-10-05T02:07:12.777Z,258
2022-10-05T02:07:34.476Z,259
2022-10-05T02:08:00.901Z,247
2022-10-05T02:08:33.648Z,235
2022-10-05T02:09:04.790Z,235
2022-10-05T02:09:35.137Z,288
2022-10-05T02:10:08.988Z,196
2022-10-05T02:10:34.613Z,212
2022-10-05T02:10:57.780Z,212
2022-10-05T02:11:28.745Z,212
2022-10-05T02:12:01.694Z,205
2022-10-05T02:12:32.986Z,244
2022-10-05T02:13:06.140Z,253
2022-10-05T02:13:34.500Z,221
2022-10-05T02:13:52.758Z,252
2022-10-05T02:14:24.921Z,223
2022-10-05T02:14:42.110Z,213
2022-10-05T02:15:13.663Z,216
2022-10-05T02:15:34.708Z,216
2022-10-05T02:16:00.801Z,216
2022-10-05T02:16:32.896Z,288
2022-10-05T02:17:04.978Z,224
2022-10-05T02:17:34.433Z,226
2022-10-05T02:17:52.787Z,220
2022-10-05T02:18:25.745Z,220
2022-10-05T02:18:42.607Z,222
2022-10-05T02:19:12.965Z,222
2022-10-05T02:19:34.499Z,215
2022-10-05T02:20:00.967Z,221
2022-10-05T02:20:33.639Z,251
2022-10-05T02:21:04.891Z,273
2022-10-05T02:21:35.571Z,235
2022-10-05T02:21:52.958Z,208
2022-10-05T02:22:24.711Z,216
2022-10-05T02:22:41.868Z,216
2022-10-05T02:23:13.797Z,216
2022-10-05T02:23:34.479Z,185
2022-10-05T02:24:00.984Z,187
2022-10-05T02:24:33.686Z,187
2022-10-05T02:25:04.920Z,211
2022-10-05T02:25:35.499Z,210
2022-10-05T02:25:52.969Z,220
2022-10-05T02:26:24.970Z,233
2022-10-05T02:26:42.605Z,264
2022-10-05T02:27:12.742Z,219
2022-10-05T02:27:34.428Z,219
2022-10-05T02:28:01.732Z,211
2022-10-05T02:28:32.993Z,211
2022-10-05T02:29:05.500Z,210
2022-10-05T02:29:34.434Z,210
2022-10-05T02:29:52.737Z,210
2022-10-05T02:30:25.046Z,210
2022-10-05T02:30:42.020Z,212
2022-10-05T02:31:13.587Z,212
2022-10-05T02:31:34.751Z,210
2022-10-05T02:32:00.751Z,263
2022-10-05T02:32:32.753Z,257
2022-10-05T02:33:05.044Z,257
2022-10-05T02:33:34.449Z,257
2022-10-05T02:33:52.911Z,270
2022-10-05T02:34:25.603Z,271
2022-10-05T02:34:42.639Z,274
2022-10-05T02:35:12.905Z,223
2022-10-05T02:35:34.403Z,223
2022-10-05T02:36:01.019Z,240
2022-10-05T02:36:33.608Z,203
2022-10-05T02:37:04.855Z,183
2022-10-05T02:37:34.603Z,206
2022-10-05T02:37:54.037Z,241
2022-10-05T02:38:24.874Z,268
2022-10-05T02:38:41.945Z,191
2022-10-05T02:39:12.817Z,170
2022-10-05T02:39:34.477Z,170
2022-10-05T02:40:01.942Z,170
2022-10-05T02:40:32.915Z,170
2022-10-05T02:41:06.422Z,170
2022-10-05T02:41:34.407Z,170
2022-10-05T02:41:52.705Z,170
2022-10-05T02:42:24.861Z,170
2022-10-05T02:42:42.062Z,170
2022-10-05T02:43:13.668Z,170
2022-10-05T02:43:34.803Z,170
2022-10-05T02:44:00.975Z,170
2022-10-05T02:44:33.621Z,170
2022-10-05T02:45:05.190Z,170
2022-10-05T02:45:36.991Z,170
2022-10-05T02:46:08.793Z,170
2022-10-05T02:46:34.513Z,170
2022-10-05T02:46:58.236Z,238
2022-10-05T02:47:28.872Z,222
2022-10-05T02:48:02.328Z,206
2022-10-05T02:48:32.779Z,208
2022-10-05T02:49:05.783Z,211
2022-10-05T02:49:34.569Z,218
2022-10-05T02:49:52.890Z,218
2022-10-05T02:50:25.753Z,219
2022-10-05T02:50:57.866Z,209
2022-10-05T02:51:28.746Z,208
2022-10-05T02:52:00.973Z,207
2022-10-05T02:52:32.874Z,233
2022-10-05T02:53:05.348Z,228
2022-10-05T02:53:34.468Z,203
2022-10-05T02:53:52.764Z,204
2022-10-05T02:54:25.718Z,211
2022-10-05T02:54:42.425Z,233
2022-10-05T02:55:13.084Z,204
2022-10-05T02:55:34.621Z,204
2022-10-05T02:56:01.728Z,232
2022-10-05T02:56:32.943Z,238
2022-10-05T02:57:05.527Z,188
2022-10-05T02:57:34.459Z,187
2022-10-05T02:57:52.704Z,184
2022-10-05T02:58:24.747Z,179
2022-10-05T02:58:41.886Z,179
2022-10-05T02:59:13.767Z,179
2022-10-05T02:59:34.552Z,179
2022-10-05T03:00:01.365Z,179
2022-10-05T03:00:33.317Z,179
2022-10-05T03:01:04.878Z,189
2022-10-05T03:01:38.440Z,189
2022-10-05T03:02:08.905Z,189
2022-10-05T03:02:34.497Z,189
2022-10-05T03:02:56.791Z,189
2022-10-05T03:03:29.703Z,189
2022-10-05T03:04:00.908Z,189
2022-10-05T03:04:33.890Z,189
2022-10-05T03:05:04.995Z,189
2022-10-05T03:05:35.496Z,189
2022-10-05T03:05:52.978Z,189
2022-10-05T03:06:24.950Z,205
2022-10-05T03:06:56.894Z,205
2022-10-05T03:07:34.583Z,205
2022-10-05T03:08:00.781Z,205
2022-10-05T03:08:32.848Z,251
2022-10-05T03:09:04.964Z,213
2022-10-05T03:09:34.423Z,213
2022-10-05T03:09:52.724Z,211
2022-10-05T03:10:25.827Z,208
2022-10-05T03:10:42.593Z,205
2022-10-05T03:11:12.897Z,204
2022-10-05T03:11:34.549Z,203
2022-10-05T03:12:01.610Z,203
2022-10-05T03:12:32.764Z,197
2022-10-05T03:13:05.681Z,198
2022-10-05T03:13:34.610Z,198
2022-10-05T03:13:52.956Z,210
2022-10-05T03:14:24.743Z,214
2022-10-05T03:14:41.904Z,210
2022-10-05T03:15:14.058Z,210
2022-10-05T03:15:34.471Z,209
2022-10-05T03:16:00.952Z,211
2022-10-05T03:16:33.300Z,211
2022-10-05T03:17:04.768Z,229
2022-10-05T03:17:34.491Z,216
2022-10-05T03:17:53.116Z,245
2022-10-05T03:18:29.860Z,219
2022-10-05T03:18:57.943Z,217
2022-10-05T03:19:28.751Z,298
2022-10-05T03:20:00.890Z,297
2022-10-05T03:20:33.127Z,298
2022-10-05T03:21:04.940Z,206
2022-10-05T03:21:34.442Z,206
2022-10-05T03:21:52.789Z,206
2022-10-05T03:22:25.703Z,206
2022-10-05T03:22:57.947Z,209
2022-10-05T03:23:28.872Z,194
2022-10-05T03:24:00.772Z,190
2022-10-05T03:24:32.786Z,170
2022-10-05T03:25:05.025Z,170
2022-10-05T03:25:34.593Z,170
2022-10-05T03:25:52.990Z,168
2022-10-05T03:26:25.861Z,168
2022-10-05T03:26:42.539Z,168
2022-10-05T03:27:12.802Z,168
2022-10-05T03:27:34.422Z,167
2022-10-05T03:28:01.832Z,167
2022-10-05T03:28:32.921Z,167
2022-10-05T03:29:05.528Z,166
2022-10-05T03:29:34.617Z,162
2022-10-05T03:29:52.802Z,160
2022-10-05T03:30:25.143Z,160
2022-10-05T03:30:42.613Z,161
2022-10-05T03:31:13.656Z,164
2022-10-05T03:31:34.629Z,160
2022-10-05T03:32:00.766Z,218
2022-10-05T03:32:33.150Z,203
2022-10-05T03:33:04.948Z,211
2022-10-05T03:33:34.852Z,209
2022-10-05T03:33:52.754Z,191
2022-10-05T03:34:25.777Z,223
2022-10-05T03:34:42.772Z,236
2022-10-05T03:35:13.199Z,222
2022-10-05T03:35:34.482Z,184
2022-10-05T03:36:00.790Z,200
2022-10-05T03:36:33.563Z,209
2022-10-05T03:37:04.983Z,192
2022-10-05T03:37:37.892Z,220
2022-10-05T03:38:08.887Z,305
2022-10-05T03:38:34.552Z,258
2022-10-05T03:38:56.746Z,203
2022-10-05T03:39:28.794Z,204
2022-10-05T03:40:01.602Z,203
2022-10-05T03:40:32.876Z,185
2022-10-05T03:41:05.965Z,185
2022-10-05T03:41:34.803Z,185
2022-10-05T03:41:52.697Z,185
2022-10-05T03:42:25.116Z,185
2022-10-05T03:42:57.402Z,185
2022-10-05T03:43:28.693Z,185
2022-10-05T03:44:01.494Z,185
2022-10-05T03:44:32.895Z,185
2022-10-05T03:45:05.122Z,185
2022-10-05T03:45:34.454Z,186
2022-10-05T03:45:53.431Z,186
2022-10-05T03:46:25.663Z,186
2022-10-05T03:46:56.843Z,186
2022-10-05T03:47:30.136Z,184
2022-10-05T03:48:01.873Z,184
2022-10-05T03:48:33.598Z,184
2022-10-05T03:49:04.733Z,184
2022-10-05T03:49:35.492Z,184
2022-10-05T03:49:52.906Z,184
2022-10-05T03:50:25.013Z,184
2022-10-05T03:50:42.586Z,184
2022-10-05T03:51:12.888Z,184
2022-10-05T03:51:34.927Z,184
2022-10-05T03:52:01.669Z,184
2022-10-05T03:52:32.895Z,184
2022-10-05T03:53:05.484Z,184
2022-10-05T03:53:34.431Z,184
2022-10-05T03:53:52.735Z,184
2022-10-05T03:54:24.912Z,185
2022-10-05T03:54:41.954Z,184
2022-10-05T03:55:13.609Z,184
2022-10-05T03:55:34.624Z,185
2022-10-05T03:56:03.119Z,185
2022-10-05T03:56:32.760Z,184
2022-10-05T03:57:05.115Z,185
2022-10-05T03:57:34.456Z,185
2022-10-05T03:57:53.091Z,184
2022-10-05T03:58:25.688Z,185
2022-10-05T03:58:42.540Z,185
2022-10-05T03:59:12.877Z,185
2022-10-05T03:59:34.628Z,185
2022-10-05T04:00:01.280Z,185
2022-10-05T04:00:33.903Z,185
2022-10-05T04:01:05.011Z,185
2022-10-05T04:01:35.677Z,185
2022-10-05T04:01:53.044Z,185
2022-10-05T04:02:25.029Z,185
2022-10-05T04:02:42.647Z,185
2022-10-05T04:03:13.741Z,185
2022-10-05T04:03:34.427Z,185
2022-10-05T04:04:00.910Z,185
2022-10-05T04:04:32.915Z,185
2022-10-05T04:05:04.917Z,185
2022-10-05T04:05:34.445Z,185
2022-10-05T04:05:52.813Z,185
2022-10-05T04:06:25.852Z,185
2022-10-05T04:06:42.183Z,185
2022-10-05T04:07:12.904Z,185
2022-10-05T04:07:34.592Z,185
2022-10-05T04:08:01.661Z,185
2022-10-05T04:08:32.811Z,185
2022-10-05T04:09:05.562Z,185
2022-10-05T04:09:34.440Z,185
2022-10-05T04:09:52.786Z,185
2022-10-05T04:10:24.882Z,185
2022-10-05T04:10:41.969Z,185
2022-10-05T04:11:13.477Z,185
2022-10-05T04:11:34.655Z,185
2022-10-05T04:12:00.701Z,185
2022-10-05T04:12:32.868Z,185
2022-10-05T04:13:04.939Z,185
2022-10-05T04:13:34.642Z,185
2022-10-05T04:13:52.732Z,185
2022-10-05T04:14:25.865Z,185
2022-10-05T04:14:42.467Z,185
2022-10-05T04:15:16.515Z,185
2022-10-05T04:15:34.526Z,185
2022-10-05T04:16:00.980Z,185
2022-10-05T04:16:33.608Z,185
2022-10-05T04:17:04.751Z,185
2022-10-05T04:17:35.696Z,185
2022-10-05T04:17:52.870Z,185
2022-10-05T04:18:24.966Z,185
2022-10-05T04:18:41.852Z,185
2022-10-05T04:19:13.798Z,185
2022-10-05T04:19:34.475Z,185
2022-10-05T04:20:01.091Z,185
2022-10-05T04:20:33.636Z,185
2022-10-05T04:21:04.724Z,185
2022-10-05T04:21:35.008Z,185
2022-10-05T04:21:54.069Z,185
2022-10-05T04:22:24.921Z,185
2022-10-05T04:22:42.523Z,185
2022-10-05T04:23:12.787Z,185
2022-10-05T04:23:35.061Z,185
2022-10-05T04:24:01.836Z,185
2022-10-05T04:24:32.870Z,185
2022-10-05T04:25:06.418Z,185
2022-10-05T04:25:34.607Z,185
2022-10-05T04:25:53.212Z,185
2022-10-05T04:26:24.795Z,185
2022-10-05T04:26:41.887Z,185
2022-10-05T04:27:13.543Z,185
2022-10-05T04:27:34.557Z,185
2022-10-05T04:28:00.852Z,185
2022-10-05T04:28:32.906Z,185
2022-10-05T04:29:04.850Z,185
2022-10-05T04:29:34.894Z,185
2022-10-05T04:29:52.907Z,185
2022-10-05T04:30:25.786Z,185
2022-10-05T04:30:42.607Z,185
2022-10-05T04:31:12.986Z,185
2022-10-05T04:31:34.525Z,185
2022-10-05T04:32:01.901Z,270
2022-10-05T04:32:37.891Z,274
2022-10-05T04:33:04.727Z,271
2022-10-05T04:33:34.535Z,271
2022-10-05T04:33:52.759Z,248
2022-10-05T04:34:25.456Z,247
2022-10-05T04:34:56.916Z,219
2022-10-05T04:35:28.919Z,220
2022-10-05T04:36:01.011Z,266
2022-10-05T04:36:32.908Z,266
2022-10-05T04:37:04.850Z,268
2022-10-05T04:37:34.519Z,255
2022-10-05T04:37:53.750Z,213
2022-10-05T04:38:24.724Z,251
2022-10-05T04:38:41.936Z,251
2022-10-05T04:39:12.885Z,273
2022-10-05T04:39:34.565Z,276
2022-10-05T04:40:01.605Z,276
2022-10-05T04:40:32.704Z,276
2022-10-05T04:41:05.631Z,276
2022-10-05T04:41:34.799Z,276
2022-10-05T04:42:09.616Z,240
2022-10-05T04:42:34.466Z,219
2022-10-05T04:42:56.724Z,243
2022-10-05T04:43:28.802Z,243
2022-10-05T04:44:01.512Z,213
2022-10-05T04:44:32.699Z,269
2022-10-05T04:45:05.466Z,234
2022-10-05T04:45:34.567Z,233
2022-10-05T04:45:52.995Z,233
2022-10-05T04:46:25.642Z,233
2022-10-05T04:46:42.564Z,233
2022-10-05T04:47:12.806Z,233
2022-10-05T04:47:34.927Z,234
2022-10-05T04:48:01.685Z,264
2022-10-05T04:48:33.881Z,201
2022-10-05T04:49:05.402Z,201
2022-10-05T04:49:35.308Z,201
2022-10-05T04:49:52.970Z,201
2022-10-05T04:50:25.009Z,239
2022-10-05T04:50:42.012Z,244
2022-10-05T04:51:12.770Z,244
2022-10-05T04:51:34.637Z,244
2022-10-05T04:52:01.679Z,213
2022-10-05T04:52:33.220Z,247
2022-10-05T04:53:05.491Z,216
2022-10-05T04:53:34.454Z,220
2022-10-05T04:53:52.697Z,289
2022-10-05T04:54:24.734Z,301
2022-10-05T04:54:41.819Z,220
2022-10-05T04:55:13.839Z,218
2022-10-05T04:55:34.447Z,221
2022-10-05T04:56:00.704Z,270
2022-10-05T04:56:33.613Z,216
2022-10-05T04:57:04.750Z,217
2022-10-05T04:57:35.696Z,258
2022-10-05T04:58:07.940Z,223
2022-10-05T04:58:24.933Z,262
2022-10-05T04:58:43.719Z,269
2022-10-05T04:59:12.703Z,274
2022-10-05T04:59:34.861Z,274
2022-10-05T05:00:01.857Z,248
2022-10-05T05:00:32.778Z,204
2022-10-05T05:01:04.894Z,263
2022-10-05T05:01:34.545Z,306
2022-10-05T05:01:52.726Z,306
2022-10-05T05:02:25.525Z,261
2022-10-05T05:02:42.436Z,273
2022-10-05T05:03:13.351Z,218
2022-10-05T05:03:34.845Z,239
2022-10-05T05:04:02.202Z,206
2022-10-05T05:04:32.899Z,251
2022-10-05T05:05:05.702Z,263
2022-10-05T05:05:34.915Z,204
2022-10-05T05:06:15.888Z,304
2022-10-05T05:06:24.768Z,304
2022-10-05T05:06:41.929Z,303
2022-10-05T05:07:13.381Z,238
2022-10-05T05:07:34.462Z,260
2022-10-05T05:08:00.665Z,269
2022-10-05T05:08:34.438Z,262
2022-10-05T05:09:04.846Z,230
2022-10-05T05:09:35.813Z,250
2022-10-05T05:10:09.406Z,272
2022-10-05T05:10:35.114Z,270
2022-10-05T05:10:57.977Z,226
2022-10-05T05:11:29.001Z,282
2022-10-05T05:12:01.109Z,240
2022-10-05T05:12:32.687Z,266
2022-10-05T05:13:04.741Z,266
2022-10-05T05:13:34.579Z,266
2022-10-05T05:13:52.841Z,338
2022-10-05T05:14:26.057Z,273
2022-10-05T05:14:43.004Z,272
2022-10-05T05:15:12.956Z,197
2022-10-05T05:15:34.658Z,197
2022-10-05T05:16:02.198Z,197
2022-10-05T05:16:32.972Z,195
2022-10-05T05:17:07.609Z,195
2022-10-05T05:17:34.991Z,195
2022-10-05T05:17:53.150Z,201
2022-10-05T05:18:25.890Z,261
2022-10-05T05:18:42.462Z,243
2022-10-05T05:19:13.201Z,243
2022-10-05T05:19:34.589Z,255
2022-10-05T05:20:01.881Z,211
2022-10-05T05:20:33.534Z,216
2022-10-05T05:21:04.967Z,270
2022-10-05T05:21:35.517Z,287
2022-10-05T05:22:09.117Z,179
2022-10-05T05:22:34.677Z,182
2022-10-05T05:22:57.557Z,315
2022-10-05T05:23:28.876Z,291
2022-10-05T05:24:02.100Z,221
2022-10-05T05:24:32.950Z,198
2022-10-05T05:25:06.146Z,209
2022-10-05T05:25:34.889Z,283
2022-10-05T05:25:52.944Z,282
2022-10-05T05:26:24.744Z,255
2022-10-05T05:26:42.682Z,282
2022-10-05T05:27:13.726Z,299
2022-10-05T05:27:34.437Z,299
2022-10-05T05:28:00.964Z,277
2022-10-05T05:28:32.779Z,259
2022-10-05T05:29:04.754Z,286
2022-10-05T05:29:34.947Z,291
2022-10-05T05:29:53.037Z,267
2022-10-05T05:30:26.316Z,234
2022-10-05T05:30:57.098Z,282
2022-10-05T05:31:28.803Z,289
2022-10-05T05:32:00.972Z,225
2022-10-05T05:32:32.990Z,285
2022-10-05T05:33:04.792Z,164
2022-10-05T05:33:34.490Z,164
2022-10-05T05:33:53.794Z,267
2022-10-05T05:34:24.889Z,244
2022-10-05T05:34:41.939Z,273
2022-10-05T05:35:12.859Z,246
2022-10-05T05:35:34.697Z,244
2022-10-05T05:36:01.650Z,244
2022-10-05T05:36:32.940Z,286
2022-10-05T05:37:05.959Z,240
2022-10-05T05:37:34.451Z,238
2022-10-05T05:37:52.934Z,241
2022-10-05T05:38:24.797Z,241
2022-10-05T05:38:42.218Z,227
2022-10-05T05:39:14.192Z,265
2022-10-05T05:39:34.698Z,265
2022-10-05T05:40:01.845Z,225
2022-10-05T05:40:32.908Z,215
2022-10-05T05:41:04.978Z,277
2022-10-05T05:41:34.923Z,282
2022-10-05T05:41:53.380Z,216
2022-10-05T05:42:26.313Z,259
2022-10-05T05:42:56.851Z,226
2022-10-05T05:43:28.996Z,271
2022-10-05T05:44:01.125Z,284
2022-10-05T05:44:37.813Z,234
2022-10-05T05:45:05.047Z,342
2022-10-05T05:45:34.890Z,232
2022-10-05T05:45:54.102Z,300
2022-10-05T05:46:44.741Z,299
2022-10-05T05:47:14.103Z,177
2022-10-05T05:47:34.631Z,160
2022-10-05T05:48:01.870Z,160
2022-10-05T05:48:32.980Z,160
2022-10-05T05:49:04.853Z,279
2022-10-05T05:49:35.880Z,279
2022-10-05T05:49:52.747Z,273
2022-10-05T05:50:25.395Z,10
2022-10-05T05:50:57.155Z,238
2022-10-05T05:51:28.775Z,243
2022-10-05T05:52:01.046Z,248
2022-10-05T05:52:33.471Z,275
2022-10-05T05:53:04.790Z,187
2022-10-05T05:53:34.740Z,255
2022-10-05T05:53:52.976Z,215
2022-10-05T05:54:25.712Z,289
2022-10-05T05:54:42.589Z,283
2022-10-05T05:55:12.949Z,242
2022-10-05T05:55:35.021Z,157
2022-10-05T05:56:00.877Z,217
2022-10-05T05:56:34.146Z,211
2022-10-05T05:57:04.967Z,197
2022-10-05T05:57:36.416Z,244
2022-10-05T05:57:52.949Z,287
2022-10-05T05:58:24.862Z,233
2022-10-05T05:58:43.139Z,245
2022-10-05T05:59:13.147Z,257
2022-10-05T05:59:34.636Z,277
2022-10-05T06:00:02.379Z,244
2022-10-05T06:00:32.883Z,279
2022-10-05T06:01:05.681Z,220
2022-10-05T06:01:34.523Z,229
2022-10-05T06:01:52.904Z,251
2022-10-05T06:02:25.039Z,210
2022-10-05T06:02:42.912Z,282
2022-10-05T06:03:13.879Z,235
2022-10-05T06:03:34.830Z,251
2022-10-05T06:04:01.535Z,249
2022-10-05T06:04:32.839Z,272
2022-10-05T06:05:05.212Z,285
2022-10-05T06:05:34.670Z,281
2022-10-05T06:05:52.977Z,233
2022-10-05T06:06:25.606Z,225
2022-10-05T06:06:42.738Z,232
2022-10-05T06:07:12.990Z,240
2022-10-05T06:07:34.520Z,271
2022-10-05T06:08:00.950Z,296
2022-10-05T06:08:33.711Z,319
2022-10-05T06:09:05.148Z,236
2022-10-05T06:09:34.701Z,180
2022-10-05T06:09:53.572Z,244
2022-10-05T06:10:24.910Z,257
2022-10-05T06:10:41.954Z,24
2022-10-05T06:11:13.648Z,239
2022-10-05T06:11:34.547Z,288
2022-10-05T06:12:01.333Z,298
2022-10-05T06:12:34.091Z,262
2022-10-05T06:13:04.786Z,255
2022-10-05T06:13:34.825Z,271
2022-10-05T06:13:53.635Z,244
2022-10-05T06:14:25.048Z,210
2022-10-05T06:14:42.044Z,333
2022-10-05T06:15:13.767Z,274
2022-10-05T06:15:34.511Z,261
2022-10-05T06:16:01.078Z,292
2022-10-05T06:16:33.167Z,277
2022-10-05T06:17:04.778Z,240
2022-10-05T06:17:34.575Z,233
2022-10-05T06:17:52.892Z,281
2022-10-05T06:18:26.400Z,283
2022-10-05T06:18:56.793Z,242